Time;durP1;ratioP1;P1;durP2;ratioP2;P2;SDS_P1;SDS_P2;PMS_P1;PMS_P2;Temp;Humidity;BMP_temperature;BMP_pressure;BME280_temperature;BME280_humidity;BME280_pressure;Samples;Min_cycle;Max_cycle;Signal;HPM_P1;HPM_P2
2022/11/25 00:00:34;;;;;;;;;;;6.80;99.90;;;;;;5007301;28;19921;-76
2022/11/25 00:06:17;;;;;;;;;;;6.90;99.90;;;;;;5354433;22;20608;31
2022/11/25 00:08:43;;;;;;;;;;;6.90;99.90;;;;;;4993481;28;19937;-76
2022/11/25 00:11:09;;;;;;;;;;;6.80;99.90;;;;;;5012564;28;20285;-76
2022/11/25 00:13:35;;;;;;;;;;;6.80;99.90;;;;;;4823261;28;19927;-76
2022/11/25 00:16:02;;;;;;;;;;;6.80;99.90;;;;;;4991297;28;20388;-76
2022/11/25 00:18:28;;;;;;;;;;;6.80;99.90;;;;;;4993475;28;19929;-76
2022/11/25 00:20:54;;;;;;;;;;;6.90;99.90;;;;;;4991577;28;19952;-76
2022/11/25 00:25:55;;;;;;;;;;;6.90;99.90;;;;;;4999450;23;20011;-74
2022/11/25 00:28:20;;;;;;;;;;;6.90;99.90;;;;;;5022250;28;19944;-74
2022/11/25 00:30:46;;;;;;;;;;;6.90;99.90;;;;;;4898309;28;19921;-73
2022/11/25 00:36:35;;;;;;;;;;;6.90;99.90;;;;;;5024600;28;19924;-73
2022/11/25 00:39:05;;;;;;;;;;;6.90;99.90;;;;;;4916721;28;19929;-73
2022/11/25 00:44:34;;;;;;;;;;;7.00;99.90;;;;;;5004199;28;20016;-73
2022/11/25 00:47:04;;;;;;;;;;;7.00;99.90;;;;;;4991250;28;19925;-73
2022/11/25 00:49:29;;;;;;;;;;;7.00;99.90;;;;;;4982569;28;19982;-74
2022/11/25 00:51:55;;;;;;;;;;;7.00;99.90;;;;;;4843634;28;20390;-73
2022/11/25 00:54:21;;;;;;;;;;;7.00;99.90;;;;;;4989352;28;19949;-73
2022/11/25 00:57:17;;;;;;;;;;;7.10;99.90;;;;;;4775984;28;19921;-73
2022/11/25 00:59:43;;;;;;;;;;;7.00;99.90;;;;;;4978171;28;19929;-73
2022/11/25 01:02:09;;;;;;;;;;;7.00;99.90;;;;;;5002278;28;19936;-73
2022/11/25 01:04:35;;;;;;;;;;;7.00;99.90;;;;;;5001710;28;20411;-73
2022/11/25 01:07:01;;;;;;;;;;;7.00;99.90;;;;;;4976135;28;20006;-73
2022/11/25 01:14:39;;;;;;;;;;;7.00;99.90;;;;;;4998215;28;20345;-74
2022/11/25 01:17:04;;;;;;;;;;;7.00;99.90;;;;;;4969461;28;19936;-74
2022/11/25 01:19:30;;;;;;;;;;;7.00;99.90;;;;;;4747816;28;19926;-74
2022/11/25 01:21:56;;;;;;;;;;;7.00;99.90;;;;;;4986797;28;19976;-74
2022/11/25 01:24:21;;;;;;;;;;;7.00;99.90;;;;;;4981346;28;20060;-74
2022/11/25 01:26:47;;;;;;;;;;;7.00;99.90;;;;;;4846194;28;20423;-74
2022/11/25 01:29:14;;;;;;;;;;;7.10;99.90;;;;;;4989281;28;20007;-75
2022/11/25 01:31:40;;;;;;;;;;;7.10;99.90;;;;;;4776823;28;19921;-75
2022/11/25 01:34:07;;;;;;;;;;;7.10;99.90;;;;;;4975837;28;20155;-75
2022/11/25 01:36:33;;;;;;;;;;;7.10;99.90;;;;;;4965610;28;19926;-75
2022/11/25 01:38:59;;;;;;;;;;;7.10;99.90;;;;;;4843686;28;19922;-73
2022/11/25 01:41:26;;;;;;;;;;;7.10;99.90;;;;;;4978179;28;19929;-73
2022/11/25 01:44:09;;;;;;;;;;;7.00;99.90;;;;;;4841795;28;19929;-73
2022/11/25 01:46:41;;;;;;;;;;;7.00;99.90;;;;;;4770021;28;19925;-73
2022/11/25 01:49:09;;;;;;;;;;;7.00;99.90;;;;;;4966805;28;19925;-73
2022/11/25 01:55:21;;;;;;;;;;;7.00;99.90;;;;;;4660894;28;19924;-73
2022/11/25 01:57:49;;;;;;;;;;;6.90;99.90;;;;;;4969501;28;20456;-73
2022/11/25 02:00:15;;;;;;;;;;;7.00;99.90;;;;;;4981292;28;19944;-73
2022/11/25 02:06:08;;;;;;;;;;;7.00;99.90;;;;;;4986136;28;19929;-73
2022/11/25 02:11:56;;;;;;;;;;;6.90;99.90;;;;;;4993276;28;19965;-73
2022/11/25 02:14:22;;;;;;;;;;;6.90;99.90;;;;;;4968976;28;19926;-73
2022/11/25 02:16:48;;;;;;;;;;;6.90;99.90;;;;;;4943262;28;19932;-73
2022/11/25 02:19:25;;;;;;;;;;;7.00;99.90;;;;;;4952712;28;20502;-73
2022/11/25 02:21:55;;;;;;;;;;;7.00;99.90;;;;;;4950868;28;19933;-73
2022/11/25 02:24:37;;;;;;;;;;;7.00;99.90;;;;;;4896309;28;20071;-74
2022/11/25 02:27:03;;;;;;;;;;;7.00;99.90;;;;;;4954680;28;20035;-73
2022/11/25 02:29:29;;;;;;;;;;;7.00;99.90;;;;;;4901394;28;19972;-74
2022/11/25 02:32:28;;;;;;;;;;;7.00;99.90;;;;;;4927213;28;20016;-73
2022/11/25 02:34:54;;;;;;;;;;;7.00;99.90;;;;;;4805893;28;19972;-74
2022/11/25 02:37:21;;;;;;;;;;;7.00;99.90;;;;;;4936168;28;19981;-75
2022/11/25 02:39:48;;;;;;;;;;;7.00;99.90;;;;;;4865246;28;19921;-74
2022/11/25 02:42:14;;;;;;;;;;;7.00;99.90;;;;;;4935514;28;19972;-74
2022/11/25 02:44:40;;;;;;;;;;;7.00;99.90;;;;;;4936075;28;19925;-74
2022/11/25 02:47:08;;;;;;;;;;;7.00;99.90;;;;;;4849759;28;20302;-74
2022/11/25 02:49:34;;;;;;;;;;;7.00;99.90;;;;;;4952441;28;20408;-75
2022/11/25 02:52:00;;;;;;;;;;;7.00;99.90;;;;;;4918077;28;19926;-74
2022/11/25 02:54:29;;;;;;;;;;;7.00;99.90;;;;;;4895405;28;19926;-75
2022/11/25 02:56:54;;;;;;;;;;;7.00;99.90;;;;;;4916717;28;38748;-76
2022/11/25 02:59:20;;;;;;;;;;;7.00;99.90;;;;;;4966218;28;20453;-77
2022/11/25 03:01:45;;;;;;;;;;;7.00;99.90;;;;;;4823045;28;20025;-76
2022/11/25 03:04:11;;;;;;;;;;;7.00;99.90;;;;;;4812756;28;19925;-76
2022/11/25 03:06:37;;;;;;;;;;;7.10;99.90;;;;;;4967625;28;19922;-76
2022/11/25 03:09:02;;;;;;;;;;;7.10;99.90;;;;;;4965719;28;19993;-76
2022/11/25 03:14:12;;;;;;;;;;;7.10;99.90;;;;;;4973485;28;19930;-76
2022/11/25 03:16:38;;;;;;;;;;;7.20;99.90;;;;;;4808366;28;19956;-76
2022/11/25 03:19:04;;;;;;;;;;;7.20;99.90;;;;;;4953130;28;19921;-76
2022/11/25 03:24:50;;;;;;;;;;;7.20;99.90;;;;;;4957419;28;20448;-76
2022/11/25 03:27:16;;;;;;;;;;;7.20;99.90;;;;;;4922393;28;19922;-76
2022/11/25 03:32:58;;;;;;;;;;;7.20;99.90;;;;;;4964538;28;19933;-75
2022/11/25 03:35:24;;;;;;;;;;;7.20;99.90;;;;;;4970957;28;20539;-76
2022/11/25 03:38:14;;;;;;;;;;;7.30;99.90;;;;;;4915512;28;19933;-76
2022/11/25 03:40:40;;;;;;;;;;;7.20;99.90;;;;;;4936949;28;20617;-76
2022/11/25 03:43:05;;;;;;;;;;;7.30;99.90;;;;;;4952068;28;19973;-76
2022/11/25 03:45:31;;;;;;;;;;;7.30;99.90;;;;;;4869815;28;20448;-75
2022/11/25 03:47:56;;;;;;;;;;;7.30;99.90;;;;;;4954032;28;19922;-75
2022/11/25 03:50:22;;;;;;;;;;;7.30;99.90;;;;;;4969667;28;19922;-75
2022/11/25 03:52:48;;;;;;;;;;;7.30;99.90;;;;;;4897886;28;20385;-76
2022/11/25 03:55:13;;;;;;;;;;;7.30;99.90;;;;;;4970116;28;20005;-75
2022/11/25 03:57:40;;;;;;;;;;;7.30;99.90;;;;;;4868900;28;19933;-75
2022/11/25 04:00:06;;;;;;;;;;;7.30;99.90;;;;;;5153190;23;20031;-74
2022/11/25 04:02:32;;;;;;;;;;;7.30;99.90;;;;;;4984376;28;20024;-74
2022/11/25 04:04:57;;;;;;;;;;;7.30;99.90;;;;;;4985829;28;20016;-74
2022/11/25 04:07:23;;;;;;;;;;;7.30;99.90;;;;;;4954205;28;19968;-74
2022/11/25 04:09:48;;;;;;;;;;;7.30;99.90;;;;;;4971501;28;19922;-74
2022/11/25 04:20:22;;;;;;;;;;;7.30;99.90;;;;;;1341283;22;20264;-75
2022/11/25 04:22:48;;;;;;;;;;;7.30;99.90;;;;;;4967120;28;19960;-76
2022/11/25 04:25:13;;;;;;;;;;;7.20;99.90;;;;;;4850468;28;19925;-75
2022/11/25 04:27:39;;;;;;;;;;;7.20;99.90;;;;;;4981280;28;20358;-76
2022/11/25 04:30:05;;;;;;;;;;;7.20;99.90;;;;;;4893778;28;19983;-75
2022/11/25 04:32:31;;;;;;;;;;;7.20;99.90;;;;;;4983936;28;20408;-75
2022/11/25 04:34:56;;;;;;;;;;;7.20;99.90;;;;;;4857105;28;19925;-75
2022/11/25 04:37:22;;;;;;;;;;;7.20;99.90;;;;;;4979448;28;20345;-75
2022/11/25 04:39:47;;;;;;;;;;;7.20;99.90;;;;;;4982246;28;19929;-76
2022/11/25 04:42:31;;;;;;;;;;;7.20;99.90;;;;;;4822943;28;19928;-76
2022/11/25 04:44:58;;;;;;;;;;;7.20;99.90;;;;;;4998689;28;19925;-77
2022/11/25 04:47:23;;;;;;;;;;;7.20;99.90;;;;;;4983797;28;19925;-76
2022/11/25 04:49:49;;;;;;;;;;;7.20;99.90;;;;;;4981150;28;20376;-76
2022/11/25 04:52:14;;;;;;;;;;;7.20;99.90;;;;;;4810252;28;20403;-76
2022/11/25 04:54:40;;;;;;;;;;;7.20;99.90;;;;;;4984588;28;19940;-76
2022/11/25 04:57:06;;;;;;;;;;;7.20;99.90;;;;;;4997231;28;20367;-76
2022/11/25 05:07:18;;;;;;;;;;;7.10;99.90;;;;;;4115205;26;19932;-74
2022/11/25 05:09:44;;;;;;;;;;;7.10;99.90;;;;;;5005442;28;19925;-74
2022/11/25 05:12:12;;;;;;;;;;;7.10;99.90;;;;;;4896089;28;19926;-73
2022/11/25 05:14:38;;;;;;;;;;;7.10;99.90;;;;;;4997767;28;20496;-73
2022/11/25 05:17:04;;;;;;;;;;;7.10;99.90;;;;;;4740485;28;20463;-74
2022/11/25 05:22:48;;;;;;;;;;;7.10;99.90;;;;;;4998991;28;20291;-74
2022/11/25 05:25:15;;;;;;;;;;;7.20;99.90;;;;;;4983997;28;19929;-74
2022/11/25 05:27:41;;;;;;;;;;;7.20;99.90;;;;;;4867245;28;19952;-74
2022/11/25 05:30:07;;;;;;;;;;;7.20;99.90;;;;;;5003125;28;20265;-74
2022/11/25 05:35:59;;;;;;;;;;;7.20;99.90;;;;;;5376483;23;20485;-77
2022/11/25 05:38:25;;;;;;;;;;;7.20;99.90;;;;;;4999378;28;19925;-77
2022/11/25 05:40:50;;;;;;;;;;;7.30;99.90;;;;;;4828691;28;19921;-76
2022/11/25 05:43:16;;;;;;;;;;;7.30;99.90;;;;;;4988472;28;19939;-77
2022/11/25 05:45:44;;;;;;;;;;;7.30;99.90;;;;;;5142640;23;19925;-76
2022/11/25 05:51:02;;;;;;;;;;;7.40;99.90;;;;;;4751537;28;20020;-73
2022/11/25 05:53:27;;;;;;;;;;;7.40;99.90;;;;;;4838598;28;19933;-73
2022/11/25 05:55:55;;;;;;;;;;;7.40;99.90;;;;;;4945166;28;19926;-73
2022/11/25 05:58:22;;;;;;;;;;;7.40;99.90;;;;;;4678851;28;20567;-73
2022/11/25 06:00:47;;;;;;;;;;;7.40;99.90;;;;;;4962372;28;19930;-73
2022/11/25 06:03:13;;;;;;;;;;;7.40;99.90;;;;;;4946355;28;19933;-73
2022/11/25 06:05:44;;;;;;;;;;;7.40;99.90;;;;;;4883405;28;20419;-73
2022/11/25 06:08:10;;;;;;;;;;;7.40;99.90;;;;;;4934871;28;19926;-73
2022/11/25 06:13:58;;;;;;;;;;;7.40;99.90;;;;;;4869323;28;67481;-74
2022/11/25 06:16:23;;;;;;;;;;;7.40;99.90;;;;;;4950528;28;19930;-74
2022/11/25 06:26:28;;;;;;;;;;;7.40;99.90;;;;;;4848116;28;19959;-74
2022/11/25 06:28:54;;;;;;;;;;;7.40;99.90;;;;;;5009058;28;19921;-74
2022/11/25 06:31:21;;;;;;;;;;;7.30;99.90;;;;;;5022200;28;19936;-74
2022/11/25 06:33:47;;;;;;;;;;;7.30;99.90;;;;;;5006499;28;19921;-74
2022/11/25 06:36:16;;;;;;;;;;;7.30;99.90;;;;;;5009834;28;19929;-74
2022/11/25 06:41:56;;;;;;;;;;;7.20;99.90;;;;;;5301260;23;20440;-74
2022/11/25 06:44:21;;;;;;;;;;;7.00;99.90;;;;;;4812946;28;19934;-74
2022/11/25 06:46:49;;;;;;;;;;;7.00;99.90;;;;;;4918188;28;20281;-75
2022/11/25 06:49:15;;;;;;;;;;;6.90;99.90;;;;;;4876129;28;19930;-76
2022/11/25 06:51:41;;;;;;;;;;;6.80;99.90;;;;;;4934690;28;20297;-77
2022/11/25 06:54:07;;;;;;;;;;;6.80;99.90;;;;;;4792293;28;20366;-76
2022/11/25 06:56:33;;;;;;;;;;;6.80;99.90;;;;;;4942511;28;19925;-76
2022/11/25 06:58:58;;;;;;;;;;;6.70;99.90;;;;;;4838642;28;20032;-74
2022/11/25 07:01:26;;;;;;;;;;;6.70;99.90;;;;;;4929441;28;19926;-73
2022/11/25 07:03:53;;;;;;;;;;;6.60;99.90;;;;;;4818179;28;19993;-73
2022/11/25 07:06:19;;;;;;;;;;;6.60;99.90;;;;;;4939883;28;19926;-73
2022/11/25 07:08:45;;;;;;;;;;;6.50;99.90;;;;;;4862494;28;19945;-74
2022/11/25 07:14:26;;;;;;;;;;;6.50;99.90;;;;;;4948034;28;19928;-74
2022/11/25 07:16:51;;;;;;;;;;;6.40;99.90;;;;;;4921476;28;19921;-74
2022/11/25 07:19:17;;;;;;;;;;;6.30;99.90;;;;;;4947584;28;19965;-73
2022/11/25 07:21:44;;;;;;;;;;;6.30;99.90;;;;;;4932795;28;19926;-73
2022/11/25 07:27:14;;;;;;;;;;;6.20;99.90;;;;;;4933994;28;19945;-74
2022/11/25 07:29:40;;;;;;;;;;;6.20;99.90;;;;;;4932020;28;19926;-74
2022/11/25 07:32:06;;;;;;;;;;;6.10;99.90;;;;;;4948966;28;19922;-74
2022/11/25 07:34:31;;;;;;;;;;;6.10;99.90;;;;;;4934663;28;20365;-74
2022/11/25 07:36:57;;;;;;;;;;;6.10;99.90;;;;;;4844410;28;20332;-74
2022/11/25 07:39:23;;;;;;;;;;;6.00;99.90;;;;;;4930127;28;19952;-75
2022/11/25 07:41:52;;;;;;;;;;;6.00;99.90;;;;;;4938333;28;19949;-74
2022/11/25 07:44:18;;;;;;;;;;;6.00;99.90;;;;;;4929070;29;19933;-74
2022/11/25 07:46:46;;;;;;;;;;;6.00;99.90;;;;;;4937082;28;19922;-74
2022/11/25 07:49:13;;;;;;;;;;;5.90;99.90;;;;;;4948246;28;19925;-75
2022/11/25 07:51:40;;;;;;;;;;;5.90;99.90;;;;;;4788225;28;19934;-74
2022/11/25 07:54:06;;;;;;;;;;;5.90;99.90;;;;;;4940534;28;19925;-74
2022/11/25 07:56:33;;;;;;;;;;;5.90;99.90;;;;;;4838394;29;19989;-74
2022/11/25 07:58:59;;;;;;;;;;;5.90;99.90;;;;;;4931998;28;19937;-74
2022/11/25 08:04:31;;;;;;;;;;;5.90;99.90;;;;;;4948916;28;19932;-74
2022/11/25 08:07:23;;;;;;;;;;;5.90;99.90;;;;;;4887211;29;20334;-74
2022/11/25 08:09:50;;;;;;;;;;;5.90;99.90;;;;;;4941391;28;20289;-74
2022/11/25 08:12:34;;;;;;;;;;;5.90;99.90;;;;;;4783003;28;20450;-74
2022/11/25 08:15:00;;;;;;;;;;;5.90;99.90;;;;;;4935990;28;19929;-74
2022/11/25 08:17:25;;;;;;;;;;;6.00;99.90;;;;;;4948168;28;20309;-74
2022/11/25 08:23:13;;;;;;;;;;;6.00;99.90;;;;;;4960274;28;20290;-74
2022/11/25 08:35:53;;;;;;;;;;;6.20;99.90;;;;;;4998100;28;19929;-75
2022/11/25 08:38:18;;;;;;;;;;;6.20;99.90;;;;;;4917744;28;19932;-75
2022/11/25 08:40:45;;;;;;;;;;;6.20;99.90;;;;;;4976067;28;19926;-75
2022/11/25 08:43:10;;;;;;;;;;;6.20;99.90;;;;;;4984013;28;19926;-75
2022/11/25 08:45:37;;;;;;;;;;;6.30;99.90;;;;;;4911418;28;20389;-75
2022/11/25 08:48:03;;;;;;;;;;;6.30;99.90;;;;;;4971989;28;19922;-75
2022/11/25 08:50:28;;;;;;;;;;;6.30;99.90;;;;;;4953500;28;19921;-74
2022/11/25 08:52:54;;;;;;;;;;;6.40;99.90;;;;;;4874132;28;20000;-75
2022/11/25 08:55:21;;;;;;;;;;;6.40;99.90;;;;;;4939970;28;20023;-75
2022/11/25 08:57:46;;;;;;;;;;;6.40;99.90;;;;;;4924138;28;19925;-75
2022/11/25 09:00:13;;;;;;;;;;;6.50;99.90;;;;;;4967988;28;19980;-75
2022/11/25 09:08:02;;;;;;;;;;;6.70;99.90;;;;;;4987559;23;19932;-74
2022/11/25 09:10:27;;;;;;;;;;;6.70;99.90;;;;;;4968951;28;20326;-74
2022/11/25 09:13:24;;;;;;;;;;;6.80;99.90;;;;;;4714360;28;19928;-74
2022/11/25 09:16:09;;;;;;;;;;;6.80;99.90;;;;;;4635570;28;20190;-73
2022/11/25 09:18:35;;;;;;;;;;;6.90;99.90;;;;;;4693875;28;21208;-76
2022/11/25 09:21:06;;;;;;;;;;;7.00;99.90;;;;;;4946975;28;19922;-77
2022/11/25 09:23:31;;;;;;;;;;;7.00;99.90;;;;;;4955829;28;19929;-76
2022/11/25 09:25:58;;;;;;;;;;;7.10;99.90;;;;;;4780017;28;20292;-77
2022/11/25 09:28:24;;;;;;;;;;;7.10;99.90;;;;;;4974489;28;19922;-76
2022/11/25 09:36:01;;;;;;;;;;;7.60;99.90;;;;;;5281965;23;19932;-74
2022/11/25 09:38:26;;;;;;;;;;;7.70;99.90;;;;;;4964666;28;19930;-74
2022/11/25 09:40:58;;;;;;;;;;;7.90;99.90;;;;;;4785258;28;19926;-74
2022/11/25 09:46:42;;;;;;;;;;;8.10;99.90;;;;;;4877772;28;20279;-74
2022/11/25 09:52:52;;;;;;;;;;;8.20;99.90;;;;;;4875065;28;19975;-74
2022/11/25 09:55:22;;;;;;;;;;;8.10;99.90;;;;;;4982774;28;19948;-74
2022/11/25 09:58:00;;;;;;;;;;;8.00;99.90;;;;;;4894358;28;19935;-74
2022/11/25 10:00:43;;;;;;;;;;;8.10;99.90;;;;;;4991770;28;19924;-74
2022/11/25 10:03:21;;;;;;;;;;;8.10;99.90;;;;;;4934536;28;19925;-74
2022/11/25 10:05:53;;;;;;;;;;;8.10;99.90;;;;;;5001557;28;19984;-74
2022/11/25 10:12:00;;;;;;;;;;;8.20;99.90;;;;;;4999526;28;20335;-74
2022/11/25 10:15:08;;;;;;;;;;;8.20;99.90;;;;;;4900020;28;19924;-74
2022/11/25 10:17:36;;;;;;;;;;;8.20;99.90;;;;;;4914508;28;20359;-73
2022/11/25 10:20:39;;;;;;;;;;;8.20;99.90;;;;;;4975114;28;19928;-74
2022/11/25 10:23:05;;;;;;;;;;;8.20;99.90;;;;;;4992550;28;20142;-74
2022/11/25 10:28:45;;;;;;;;;;;8.20;99.90;;;;;;4886804;28;19926;-73
2022/11/25 10:31:16;;;;;;;;;;;8.30;99.90;;;;;;4998859;28;19925;-73
2022/11/25 10:34:16;;;;;;;;;;;8.40;99.90;;;;;;4718567;28;19922;-72
2022/11/25 10:36:43;;;;;;;;;;;8.60;99.90;;;;;;4988531;28;19992;-73
2022/11/25 10:39:26;;;;;;;;;;;8.80;99.90;;;;;;4992305;28;20395;-73
2022/11/25 10:41:58;;;;;;;;;;;8.80;99.90;;;;;;4873303;28;19932;-73
2022/11/25 10:44:31;;;;;;;;;;;8.80;99.90;;;;;;4987954;28;19921;-73
2022/11/25 10:47:06;;;;;;;;;;;8.80;99.90;;;;;;4949141;28;19925;-72
2022/11/25 10:53:03;;;;;;;;;;;8.90;99.90;;;;;;4959305;28;19928;-72
2022/11/25 10:55:31;;;;;;;;;;;8.90;99.90;;;;;;4973552;28;20502;-72
2022/11/25 10:58:30;;;;;;;;;;;9.00;99.90;;;;;;4973601;28;19936;-72
2022/11/25 11:01:05;;;;;;;;;;;8.90;99.90;;;;;;4937690;28;20428;-72
2022/11/25 11:03:31;;;;;;;;;;;9.00;99.90;;;;;;4990964;28;19928;-72
2022/11/25 11:05:57;;;;;;;;;;;9.00;99.90;;;;;;4913341;28;20055;-72
2022/11/25 11:08:26;;;;;;;;;;;9.00;99.90;;;;;;4994675;28;20408;-72
2022/11/25 11:11:11;;;;;;;;;;;9.00;99.90;;;;;;4877978;28;19921;-72
2022/11/25 11:13:37;;;;;;;;;;;9.00;99.90;;;;;;5000000;28;19921;-72
2022/11/25 11:16:03;;;;;;;;;;;9.10;99.90;;;;;;5004107;28;20230;-72
2022/11/25 11:18:38;;;;;;;;;;;9.20;99.90;;;;;;4881242;28;19972;-72
2022/11/25 11:21:05;;;;;;;;;;;9.30;99.90;;;;;;4990311;28;19921;-72
2022/11/25 11:23:45;;;;;;;;;;;9.50;99.90;;;;;;4860110;28;19956;-72
2022/11/25 11:26:20;;;;;;;;;;;9.70;99.90;;;;;;4985266;28;19925;-72
2022/11/25 11:28:46;;;;;;;;;;;9.80;99.90;;;;;;4893511;28;20016;-72
2022/11/25 11:31:21;;;;;;;;;;;9.90;99.90;;;;;;4864035;28;20391;-72
2022/11/25 11:33:47;;;;;;;;;;;9.90;99.90;;;;;;4980948;28;20339;-72
2022/11/25 11:36:16;;;;;;;;;;;9.80;99.90;;;;;;4873111;28;19926;-72
2022/11/25 11:38:48;;;;;;;;;;;9.90;99.90;;;;;;4893369;28;20309;-72
2022/11/25 11:41:20;;;;;;;;;;;9.90;99.90;;;;;;4989572;28;19937;-72
2022/11/25 11:43:49;;;;;;;;;;;10.00;99.90;;;;;;4987608;28;20031;-75
2022/11/25 11:46:33;;;;;;;;;;;10.00;99.90;;;;;;4822958;28;19924;-74
2022/11/25 11:49:08;;;;;;;;;;;9.90;99.90;;;;;;4996090;28;20435;-74
2022/11/25 11:52:00;;;;;;;;;;;9.90;99.90;;;;;;4989863;28;19921;-74
2022/11/25 11:54:34;;;;;;;;;;;9.90;99.90;;;;;;4954642;28;20274;-74
2022/11/25 11:57:08;;;;;;;;;;;9.90;99.90;;;;;;4989659;28;19971;-74
2022/11/25 11:59:34;;;;;;;;;;;10.00;99.90;;;;;;4889646;28;34505;-74
2022/11/25 12:02:09;;;;;;;;;;;10.00;99.90;;;;;;4980311;28;19921;-74
2022/11/25 12:04:53;;;;;;;;;;;10.00;99.90;;;;;;4855254;28;47357;-74
2022/11/25 12:07:22;;;;;;;;;;;10.00;99.90;;;;;;5001179;28;20419;-74
2022/11/25 12:10:04;;;;;;;;;;;10.00;99.90;;;;;;4987427;28;19929;-74
2022/11/25 12:15:37;;;;;;;;;;;9.90;99.90;;;;;;5163757;23;19931;-76
2022/11/25 12:18:14;;;;;;;;;;;9.90;99.90;;;;;;4923687;28;19948;-74
2022/11/25 12:20:46;;;;;;;;;;;9.80;99.90;;;;;;4989296;28;20016;-74
2022/11/25 12:23:18;;;;;;;;;;;9.70;99.90;;;;;;4882620;28;19929;-74
2022/11/25 12:25:44;;;;;;;;;;;9.70;99.90;;;;;;4950486;28;19961;-76
2022/11/25 12:33:20;;;;;;;;;;;9.70;99.90;;;;;;5532736;23;19925;-72
2022/11/25 12:39:35;;;;;;;;;;;9.70;99.90;;;;;;4951645;28;19980;-74
2022/11/25 12:42:03;;;;;;;;;;;9.80;99.90;;;;;;4958655;28;19980;-74
2022/11/25 12:44:45;;;;;;;;;;;9.80;99.90;;;;;;4966711;28;19922;-74
2022/11/25 12:47:14;;;;;;;;;;;9.80;99.90;;;;;;4665090;28;20340;-73
2022/11/25 12:49:45;;;;;;;;;;;9.80;99.90;;;;;;4697324;28;21106;-74
2022/11/25 12:52:31;;;;;;;;;;;9.80;99.90;;;;;;4959881;28;20449;-74
2022/11/25 12:54:57;;;;;;;;;;;9.80;99.90;;;;;;4959344;28;19966;-74
2022/11/25 12:57:40;;;;;;;;;;;9.80;99.90;;;;;;4917995;28;20264;-74
2022/11/25 13:00:16;;;;;;;;;;;9.90;99.90;;;;;;4946682;28;20298;-74
2022/11/25 13:02:52;;;;;;;;;;;10.10;99.90;;;;;;4961156;28;19926;-72
2022/11/25 13:05:52;;;;;;;;;;;10.10;99.90;;;;;;4888783;28;19957;-71
2022/11/25 13:08:36;;;;;;;;;;;10.20;99.90;;;;;;4732017;28;29609;-74
2022/11/25 13:11:02;;;;;;;;;;;10.20;99.90;;;;;;4950510;28;19922;-74
2022/11/25 13:13:31;;;;;;;;;;;10.10;99.90;;;;;;4920290;28;20021;-71
2022/11/25 13:15:58;;;;;;;;;;;10.10;99.90;;;;;;4966366;28;20317;-74
2022/11/25 13:18:26;;;;;;;;;;;10.10;99.90;;;;;;4828635;28;19926;-74
2022/11/25 13:20:52;;;;;;;;;;;10.10;99.90;;;;;;4949134;28;19945;-74
2022/11/25 13:23:18;;;;;;;;;;;10.20;99.90;;;;;;4844454;28;19949;-74
2022/11/25 13:25:45;;;;;;;;;;;10.20;99.90;;;;;;4966761;28;19933;-74
2022/11/25 13:31:34;;;;;;;;;;;10.00;99.90;;;;;;4787845;28;20490;-74
2022/11/25 13:33:59;;;;;;;;;;;10.00;99.90;;;;;;4955673;28;19930;-74
2022/11/25 13:36:42;;;;;;;;;;;9.90;99.90;;;;;;4867622;28;19954;-74
2022/11/25 13:39:13;;;;;;;;;;;9.90;99.90;;;;;;4930523;29;19926;-74
2022/11/25 13:41:41;;;;;;;;;;;9.90;99.90;;;;;;4914672;28;19923;-74
2022/11/25 13:44:12;;;;;;;;;;;9.90;99.90;;;;;;4944010;29;19929;-74
2022/11/25 13:46:40;;;;;;;;;;;10.00;99.90;;;;;;4881575;28;19922;-74
2022/11/25 13:49:19;;;;;;;;;;;10.00;99.90;;;;;;4931720;29;20363;-74
2022/11/25 13:55:23;;;;;;;;;;;10.10;99.90;;;;;;4898103;28;20034;-72
2022/11/25 13:58:00;;;;;;;;;;;10.10;99.90;;;;;;4947238;28;20441;-72
2022/11/25 14:00:32;;;;;;;;;;;10.10;99.90;;;;;;4878670;28;19953;-74
2022/11/25 14:03:16;;;;;;;;;;;10.00;99.90;;;;;;4934205;29;19981;-74
2022/11/25 14:06:07;;;;;;;;;;;10.00;99.90;;;;;;4819505;28;19980;-74
2022/11/25 14:08:38;;;;;;;;;;;9.90;99.90;;;;;;4953284;28;19969;-74
2022/11/25 14:11:19;;;;;;;;;;;9.90;99.90;;;;;;4936385;29;20017;-74
2022/11/25 14:17:03;;;;;;;;;;;9.90;99.90;;;;;;4732053;28;19977;-72
2022/11/25 14:23:10;;;;;;;;;;;9.80;99.90;;;;;;4856682;28;20310;-72
2022/11/25 14:28:42;;;;;;;;;;;9.90;99.90;;;;;;4942614;28;19926;-72
2022/11/25 14:31:09;;;;;;;;;;;9.90;99.90;;;;;;4931210;28;19937;-72
2022/11/25 14:33:41;;;;;;;;;;;10.00;99.90;;;;;;4899014;28;19933;-72
2022/11/25 14:36:12;;;;;;;;;;;10.10;99.90;;;;;;4945286;28;20125;-72
2022/11/25 14:39:01;;;;;;;;;;;10.10;99.90;;;;;;4658499;29;19974;-72
2022/11/25 14:41:44;;;;;;;;;;;10.00;99.90;;;;;;4931729;29;20017;-72
2022/11/25 14:44:16;;;;;;;;;;;9.90;99.90;;;;;;4874900;29;20823;-72
2022/11/25 14:50:02;;;;;;;;;;;9.60;99.90;;;;;;4940861;28;19926;-72
2022/11/25 14:52:29;;;;;;;;;;;9.50;99.90;;;;;;4928032;28;19934;-72
2022/11/25 14:54:56;;;;;;;;;;;9.30;99.90;;;;;;4947120;28;19926;-72
2022/11/25 14:57:27;;;;;;;;;;;9.20;99.90;;;;;;4586910;28;19990;-72
2022/11/25 14:59:55;;;;;;;;;;;9.20;99.90;;;;;;4852793;29;20373;-72
2022/11/25 15:05:59;;;;;;;;;;;9.00;99.90;;;;;;4842806;29;20261;-72
2022/11/25 15:08:26;;;;;;;;;;;9.00;99.90;;;;;;4937609;28;19949;-72
2022/11/25 15:10:56;;;;;;;;;;;8.90;99.90;;;;;;4948104;28;19926;-72
2022/11/25 15:13:24;;;;;;;;;;;8.80;99.90;;;;;;4947594;28;20021;-72
2022/11/25 15:15:51;;;;;;;;;;;8.80;99.90;;;;;;4862084;28;20330;-72
2022/11/25 15:18:18;;;;;;;;;;;8.70;99.90;;;;;;4937703;28;20058;-72
2022/11/25 15:20:46;;;;;;;;;;;8.60;99.90;;;;;;4861713;29;19922;-72
2022/11/25 15:23:18;;;;;;;;;;;8.40;99.90;;;;;;4910661;28;19926;-72
2022/11/25 15:25:50;;;;;;;;;;;8.30;99.90;;;;;;4935175;28;20005;-72
2022/11/25 15:28:16;;;;;;;;;;;8.20;99.90;;;;;;4920091;29;20582;-72
2022/11/25 15:30:53;;;;;;;;;;;8.10;99.90;;;;;;4867372;29;20458;-74
2022/11/25 15:33:19;;;;;;;;;;;8.00;99.90;;;;;;4930476;29;19926;-74
2022/11/25 15:39:26;;;;;;;;;;;7.90;99.90;;;;;;4866170;29;19933;-74
2022/11/25 15:42:14;;;;;;;;;;;7.80;99.90;;;;;;4907435;29;19930;-74
2022/11/25 15:44:53;;;;;;;;;;;7.70;99.90;;;;;;4904834;28;20957;-74
2022/11/25 15:47:23;;;;;;;;;;;7.70;99.90;;;;;;4930730;29;19970;-74
2022/11/25 15:50:03;;;;;;;;;;;7.70;99.90;;;;;;4835352;28;20497;-74
2022/11/25 15:52:30;;;;;;;;;;;7.70;99.90;;;;;;4927569;29;19973;-74
2022/11/25 15:55:04;;;;;;;;;;;7.60;99.90;;;;;;4931084;29;19988;-74
2022/11/25 15:57:49;;;;;;;;;;;7.60;99.90;;;;;;4837890;28;19957;-74
2022/11/25 16:00:15;;;;;;;;;;;7.50;99.90;;;;;;4931857;28;20426;-74
2022/11/25 16:02:41;;;;;;;;;;;7.40;99.90;;;;;;4914354;29;19968;-75
2022/11/25 16:05:16;;;;;;;;;;;7.30;99.90;;;;;;4889826;29;20391;-75
2022/11/25 16:07:51;;;;;;;;;;;7.10;99.90;;;;;;4929432;29;20611;-75
2022/11/25 16:10:18;;;;;;;;;;;7.00;99.90;;;;;;4945606;28;19926;-75
2022/11/25 16:12:43;;;;;;;;;;;7.00;99.90;;;;;;4901457;28;19923;-75
2022/11/25 16:15:39;;;;;;;;;;;6.90;99.90;;;;;;4911807;28;19930;-74
2022/11/25 16:18:08;;;;;;;;;;;6.80;99.90;;;;;;4946855;28;19956;-75
2022/11/25 16:20:49;;;;;;;;;;;6.80;99.90;;;;;;4859551;29;19977;-75
2022/11/25 16:23:15;;;;;;;;;;;6.70;99.90;;;;;;4940677;28;20013;-75
2022/11/25 16:25:46;;;;;;;;;;;6.70;99.90;;;;;;4865205;29;19927;-74
2022/11/25 16:28:17;;;;;;;;;;;6.60;99.90;;;;;;4950488;28;20232;-75
2022/11/25 16:30:43;;;;;;;;;;;6.60;99.90;;;;;;4878278;28;20366;-74
2022/11/25 16:33:09;;;;;;;;;;;6.50;99.90;;;;;;4928298;29;19923;-74
2022/11/25 16:35:35;;;;;;;;;;;6.50;99.90;;;;;;4898350;28;19926;-75
2022/11/25 16:38:00;;;;;;;;;;;6.40;99.90;;;;;;4915266;29;19930;-74
2022/11/25 16:40:26;;;;;;;;;;;6.30;99.90;;;;;;4861522;28;19931;-74
2022/11/25 16:46:00;;;;;;;;;;;6.10;99.90;;;;;;4942752;28;20366;-74
2022/11/25 16:48:25;;;;;;;;;;;6.00;99.90;;;;;;4889826;28;19922;-74
2022/11/25 16:50:51;;;;;;;;;;;6.00;99.90;;;;;;4926895;29;19950;-74
2022/11/25 16:53:17;;;;;;;;;;;6.00;99.90;;;;;;4943395;28;19938;-74
2022/11/25 16:55:44;;;;;;;;;;;6.10;99.90;;;;;;4927706;29;20026;-74
2022/11/25 16:58:20;;;;;;;;;;;6.10;99.90;;;;;;4948301;28;20021;-74
2022/11/25 17:00:55;;;;;;;;;;;6.20;99.90;;;;;;4865441;29;19926;-74
2022/11/25 17:03:25;;;;;;;;;;;6.30;99.90;;;;;;4944937;28;19965;-74
2022/11/25 17:05:51;;;;;;;;;;;6.30;99.90;;;;;;4929467;29;19958;-74
2022/11/25 17:08:17;;;;;;;;;;;6.30;99.90;;;;;;4913857;28;20429;-74
2022/11/25 17:10:43;;;;;;;;;;;6.40;99.90;;;;;;4850631;29;19930;-74
2022/11/25 17:13:15;;;;;;;;;;;6.40;99.90;;;;;;4926928;28;19926;-74
2022/11/25 17:15:41;;;;;;;;;;;6.40;99.90;;;;;;4930729;28;20762;-74
2022/11/25 17:18:07;;;;;;;;;;;6.40;99.90;;;;;;4934670;28;20012;-74
2022/11/25 17:20:32;;;;;;;;;;;6.40;99.90;;;;;;4931341;28;20267;-74
2022/11/25 17:22:59;;;;;;;;;;;6.40;99.90;;;;;;4929400;28;19937;-74
2022/11/25 17:25:26;;;;;;;;;;;6.40;99.90;;;;;;4912583;28;20220;-74
2022/11/25 17:27:52;;;;;;;;;;;6.40;99.90;;;;;;4960280;28;19958;-74
2022/11/25 17:30:25;;;;;;;;;;;6.40;99.90;;;;;;4931524;29;19972;-74
2022/11/25 17:32:59;;;;;;;;;;;6.40;99.90;;;;;;4927790;29;20020;-74